sensor_id;sensor_type;location;lat;lon;timestamp;P1;durP1;ratioP1;P2;durP2;ratioP2
21202;SDS011;10759;51.982;9.232;2023-04-02T00:01:18;6.60;;;6.10;;
21202;SDS011;10759;51.982;9.232;2023-04-02T00:04:02;6.53;;;6.00;;
21202;SDS011;10759;51.982;9.232;2023-04-02T00:06:41;10.73;;;9.77;;
21202;SDS011;10759;51.982;9.232;2023-04-02T00:12:14;9.07;;;8.30;;
21202;SDS011;10759;51.982;9.232;2023-04-02T00:14:49;7.90;;;7.20;;
21202;SDS011;10759;51.982;9.232;2023-04-02T00:17:20;10.32;;;9.38;;
21202;SDS011;10759;51.982;9.232;2023-04-02T00:19:52;7.18;;;6.63;;
21202;SDS011;10759;51.982;9.232;2023-04-02T00:22:26;8.52;;;7.68;;
21202;SDS011;10759;51.982;9.232;2023-04-02T00:24:58;8.10;;;7.43;;
21202;SDS011;10759;51.982;9.232;2023-04-02T00:27:29;8.90;;;7.38;;
21202;SDS011;10759;51.982;9.232;2023-04-02T00:29:58;6.47;;;5.97;;
21202;SDS011;10759;51.982;9.232;2023-04-02T00:32:27;8.10;;;7.28;;
21202;SDS011;10759;51.982;9.232;2023-04-02T00:34:57;5.63;;;5.18;;
21202;SDS011;10759;51.982;9.232;2023-04-02T00:37:29;8.07;;;7.38;;
21202;SDS011;10759;51.982;9.232;2023-04-02T00:40:06;5.93;;;5.43;;
21202;SDS011;10759;51.982;9.232;2023-04-02T00:42:42;11.23;;;9.32;;
21202;SDS011;10759;51.982;9.232;2023-04-02T00:45:14;8.90;;;7.68;;
21202;SDS011;10759;51.982;9.232;2023-04-02T00:47:48;6.43;;;5.82;;
21202;SDS011;10759;51.982;9.232;2023-04-02T00:50:18;7.40;;;6.70;;
21202;SDS011;10759;51.982;9.232;2023-04-02T00:52:51;7.45;;;6.85;;
21202;SDS011;10759;51.982;9.232;2023-04-02T00:55:21;7.55;;;6.95;;
21202;SDS011;10759;51.982;9.232;2023-04-02T00:57:53;6.47;;;5.88;;
21202;SDS011;10759;51.982;9.232;2023-04-02T01:00:23;6.20;;;5.60;;
21202;SDS011;10759;51.982;9.232;2023-04-02T01:03:23;7.30;;;6.80;;
21202;SDS011;10759;51.982;9.232;2023-04-02T01:05:56;8.68;;;7.82;;
21202;SDS011;10759;51.982;9.232;2023-04-02T01:08:31;8.45;;;7.50;;
21202;SDS011;10759;51.982;9.232;2023-04-02T01:11:14;8.80;;;7.90;;
21202;SDS011;10759;51.982;9.232;2023-04-02T01:13:53;8.90;;;7.97;;
21202;SDS011;10759;51.982;9.232;2023-04-02T01:16:27;8.15;;;7.40;;
21202;SDS011;10759;51.982;9.232;2023-04-02T01:19:07;10.43;;;7.95;;
21202;SDS011;10759;51.982;9.232;2023-04-02T01:21:52;9.43;;;8.40;;
21202;SDS011;10759;51.982;9.232;2023-04-02T01:24:30;10.57;;;8.40;;
21202;SDS011;10759;51.982;9.232;2023-04-02T01:27:00;10.75;;;8.38;;
21202;SDS011;10759;51.982;9.232;2023-04-02T01:29:33;10.80;;;9.75;;
21202;SDS011;10759;51.982;9.232;2023-04-02T01:32:04;10.40;;;9.38;;
21202;SDS011;10759;51.982;9.232;2023-04-02T01:34:36;10.27;;;9.18;;
21202;SDS011;10759;51.982;9.232;2023-04-02T01:37:07;11.82;;;9.55;;
21202;SDS011;10759;51.982;9.232;2023-04-02T01:39:59;9.25;;;8.30;;
21202;SDS011;10759;51.982;9.232;2023-04-02T01:42:37;10.27;;;9.20;;
21202;SDS011;10759;51.982;9.232;2023-04-02T01:45:14;9.52;;;8.15;;
21202;SDS011;10759;51.982;9.232;2023-04-02T01:47:44;10.38;;;9.38;;
21202;SDS011;10759;51.982;9.232;2023-04-02T01:50:19;12.90;;;9.90;;
21202;SDS011;10759;51.982;9.232;2023-04-02T01:52:53;9.98;;;9.00;;
21202;SDS011;10759;51.982;9.232;2023-04-02T01:55:24;11.15;;;8.55;;
21202;SDS011;10759;51.982;9.232;2023-04-02T01:57:58;10.20;;;8.90;;
21202;SDS011;10759;51.982;9.232;2023-04-02T02:00:29;10.93;;;8.75;;
21202;SDS011;10759;51.982;9.232;2023-04-02T02:02:59;10.77;;;9.68;;
21202;SDS011;10759;51.982;9.232;2023-04-02T02:05:28;10.68;;;9.15;;
21202;SDS011;10759;51.982;9.232;2023-04-02T02:07:58;11.00;;;9.00;;
21202;SDS011;10759;51.982;9.232;2023-04-02T02:10:28;12.05;;;8.80;;
21202;SDS011;10759;51.982;9.232;2023-04-02T02:13:01;10.35;;;8.43;;
21202;SDS011;10759;51.982;9.232;2023-04-02T02:15:31;10.40;;;9.43;;
21202;SDS011;10759;51.982;9.232;2023-04-02T02:18:01;10.70;;;9.70;;
21202;SDS011;10759;51.982;9.232;2023-04-02T02:20:30;10.63;;;9.57;;
21202;SDS011;10759;51.982;9.232;2023-04-02T02:23:00;10.95;;;9.32;;
21202;SDS011;10759;51.982;9.232;2023-04-02T02:28:01;10.40;;;8.93;;
21202;SDS011;10759;51.982;9.232;2023-04-02T02:30:37;11.68;;;9.82;;
21202;SDS011;10759;51.982;9.232;2023-04-02T02:33:13;11.48;;;9.30;;
21202;SDS011;10759;51.982;9.232;2023-04-02T02:35:45;13.10;;;8.75;;
21202;SDS011;10759;51.982;9.232;2023-04-02T02:38:27;12.75;;;8.70;;
21202;SDS011;10759;51.982;9.232;2023-04-02T02:41:12;10.35;;;8.15;;
21202;SDS011;10759;51.982;9.232;2023-04-02T02:43:45;10.13;;;8.98;;
21202;SDS011;10759;51.982;9.232;2023-04-02T02:46:19;9.68;;;7.50;;
21202;SDS011;10759;51.982;9.232;2023-04-02T02:48:51;10.75;;;8.38;;
21202;SDS011;10759;51.982;9.232;2023-04-02T02:51:22;9.75;;;8.52;;
21202;SDS011;10759;51.982;9.232;2023-04-02T02:53:57;11.73;;;8.95;;
21202;SDS011;10759;51.982;9.232;2023-04-02T02:56:30;10.43;;;9.43;;
21202;SDS011;10759;51.982;9.232;2023-04-02T02:59:02;9.85;;;8.73;;
21202;SDS011;10759;51.982;9.232;2023-04-02T03:01:39;14.00;;;8.45;;
21202;SDS011;10759;51.982;9.232;2023-04-02T03:04:07;9.77;;;8.57;;
21202;SDS011;10759;51.982;9.232;2023-04-02T03:06:36;9.27;;;8.10;;
21202;SDS011;10759;51.982;9.232;2023-04-02T03:09:09;12.93;;;7.53;;
21202;SDS011;10759;51.982;9.232;2023-04-02T03:11:46;9.40;;;7.35;;
21202;SDS011;10759;51.982;9.232;2023-04-02T03:14:23;7.93;;;7.05;;
21202;SDS011;10759;51.982;9.232;2023-04-02T03:17:01;8.48;;;7.40;;
21202;SDS011;10759;51.982;9.232;2023-04-02T03:19:37;12.82;;;7.13;;
21202;SDS011;10759;51.982;9.232;2023-04-02T03:22:13;7.50;;;5.57;;
21202;SDS011;10759;51.982;9.232;2023-04-02T03:24:48;13.40;;;6.78;;
21202;SDS011;10759;51.982;9.232;2023-04-02T03:27:23;8.77;;;5.68;;
21202;SDS011;10759;51.982;9.232;2023-04-02T03:29:59;6.53;;;5.50;;
21202;SDS011;10759;51.982;9.232;2023-04-02T03:32:42;8.73;;;5.78;;
21202;SDS011;10759;51.982;9.232;2023-04-02T03:35:16;6.50;;;5.82;;
21202;SDS011;10759;51.982;9.232;2023-04-02T03:37:50;9.82;;;4.85;;
21202;SDS011;10759;51.982;9.232;2023-04-02T03:40:23;8.02;;;5.63;;
21202;SDS011;10759;51.982;9.232;2023-04-02T03:42:57;6.93;;;5.15;;
21202;SDS011;10759;51.982;9.232;2023-04-02T03:45:30;9.07;;;5.00;;
21202;SDS011;10759;51.982;9.232;2023-04-02T03:48:05;6.43;;;4.82;;
21202;SDS011;10759;51.982;9.232;2023-04-02T03:50:41;5.47;;;4.68;;
21202;SDS011;10759;51.982;9.232;2023-04-02T03:53:13;7.45;;;5.20;;
21202;SDS011;10759;51.982;9.232;2023-04-02T03:55:42;5.35;;;3.88;;
21202;SDS011;10759;51.982;9.232;2023-04-02T03:58:13;6.55;;;4.45;;
21202;SDS011;10759;51.982;9.232;2023-04-02T04:00:46;5.60;;;3.95;;
21202;SDS011;10759;51.982;9.232;2023-04-02T04:03:21;5.60;;;4.40;;
21202;SDS011;10759;51.982;9.232;2023-04-02T04:05:54;7.13;;;4.10;;
21202;SDS011;10759;51.982;9.232;2023-04-02T04:08:28;6.97;;;4.32;;
21202;SDS011;10759;51.982;9.232;2023-04-02T04:11:06;5.68;;;4.10;;
21202;SDS011;10759;51.982;9.232;2023-04-02T04:13:38;5.65;;;4.20;;
21202;SDS011;10759;51.982;9.232;2023-04-02T04:16:12;6.00;;;4.30;;
21202;SDS011;10759;51.982;9.232;2023-04-02T04:18:48;6.65;;;4.60;;
21202;SDS011;10759;51.982;9.232;2023-04-02T04:21:24;6.13;;;5.15;;
21202;SDS011;10759;51.982;9.232;2023-04-02T04:24:10;7.72;;;4.68;;
21202;SDS011;10759;51.982;9.232;2023-04-02T04:26:49;6.60;;;4.45;;
21202;SDS011;10759;51.982;9.232;2023-04-02T04:29:26;6.68;;;4.47;;
21202;SDS011;10759;51.982;9.232;2023-04-02T04:32:11;7.60;;;4.07;;
21202;SDS011;10759;51.982;9.232;2023-04-02T04:34:48;5.65;;;3.72;;
21202;SDS011;10759;51.982;9.232;2023-04-02T04:37:27;4.50;;;3.42;;
21202;SDS011;10759;51.982;9.232;2023-04-02T04:40:04;5.00;;;3.28;;
21202;SDS011;10759;51.982;9.232;2023-04-02T04:42:39;6.53;;;3.28;;
21202;SDS011;10759;51.982;9.232;2023-04-02T04:45:12;5.60;;;3.45;;
21202;SDS011;10759;51.982;9.232;2023-04-02T04:47:56;7.47;;;3.72;;
21202;SDS011;10759;51.982;9.232;2023-04-02T04:50:31;10.30;;;3.85;;
21202;SDS011;10759;51.982;9.232;2023-04-02T04:53:05;4.18;;;3.72;;
21202;SDS011;10759;51.982;9.232;2023-04-02T04:55:35;5.38;;;2.97;;
21202;SDS011;10759;51.982;9.232;2023-04-02T04:58:09;5.32;;;3.05;;
21202;SDS011;10759;51.982;9.232;2023-04-02T05:00:49;4.70;;;3.03;;
21202;SDS011;10759;51.982;9.232;2023-04-02T05:03:25;5.63;;;3.20;;
21202;SDS011;10759;51.982;9.232;2023-04-02T05:06:04;7.93;;;3.90;;
21202;SDS011;10759;51.982;9.232;2023-04-02T05:08:39;4.57;;;3.05;;
21202;SDS011;10759;51.982;9.232;2023-04-02T05:11:13;3.72;;;2.85;;
21202;SDS011;10759;51.982;9.232;2023-04-02T05:13:48;3.60;;;2.85;;
21202;SDS011;10759;51.982;9.232;2023-04-02T05:16:20;7.25;;;2.83;;
21202;SDS011;10759;51.982;9.232;2023-04-02T05:18:55;3.03;;;2.70;;
21202;SDS011;10759;51.982;9.232;2023-04-02T05:21:34;7.03;;;3.20;;
21202;SDS011;10759;51.982;9.232;2023-04-02T05:24:18;4.93;;;2.88;;
21202;SDS011;10759;51.982;9.232;2023-04-02T05:27:00;7.38;;;3.28;;
21202;SDS011;10759;51.982;9.232;2023-04-02T05:29:33;3.38;;;2.47;;
21202;SDS011;10759;51.982;9.232;2023-04-02T05:32:05;5.35;;;2.95;;
21202;SDS011;10759;51.982;9.232;2023-04-02T05:34:38;7.15;;;2.75;;
21202;SDS011;10759;51.982;9.232;2023-04-02T05:37:13;6.15;;;3.17;;
21202;SDS011;10759;51.982;9.232;2023-04-02T05:39:45;4.22;;;2.90;;
21202;SDS011;10759;51.982;9.232;2023-04-02T05:42:19;3.67;;;3.00;;
21202;SDS011;10759;51.982;9.232;2023-04-02T05:44:57;5.10;;;2.88;;
21202;SDS011;10759;51.982;9.232;2023-04-02T05:47:33;4.32;;;2.90;;
21202;SDS011;10759;51.982;9.232;2023-04-02T05:50:16;3.17;;;2.92;;
21202;SDS011;10759;51.982;9.232;2023-04-02T05:52:54;3.92;;;2.35;;
21202;SDS011;10759;51.982;9.232;2023-04-02T05:55:29;5.55;;;2.55;;
21202;SDS011;10759;51.982;9.232;2023-04-02T05:58:03;6.03;;;2.63;;
21202;SDS011;10759;51.982;9.232;2023-04-02T06:01:01;4.93;;;3.17;;
21202;SDS011;10759;51.982;9.232;2023-04-02T06:03:37;4.57;;;3.00;;
21202;SDS011;10759;51.982;9.232;2023-04-02T06:06:15;6.95;;;3.00;;
21202;SDS011;10759;51.982;9.232;2023-04-02T06:08:53;10.10;;;2.63;;
21202;SDS011;10759;51.982;9.232;2023-04-02T06:11:26;3.22;;;2.45;;
21202;SDS011;10759;51.982;9.232;2023-04-02T06:14:00;5.43;;;2.75;;
21202;SDS011;10759;51.982;9.232;2023-04-02T06:16:30;3.30;;;2.30;;
21202;SDS011;10759;51.982;9.232;2023-04-02T06:19:01;6.03;;;2.53;;
21202;SDS011;10759;51.982;9.232;2023-04-02T06:21:32;4.07;;;2.60;;
21202;SDS011;10759;51.982;9.232;2023-04-02T06:24:02;5.45;;;2.67;;
21202;SDS011;10759;51.982;9.232;2023-04-02T06:26:35;6.55;;;2.83;;
21202;SDS011;10759;51.982;9.232;2023-04-02T06:29:12;3.55;;;2.20;;
21202;SDS011;10759;51.982;9.232;2023-04-02T06:31:48;5.75;;;2.67;;
21202;SDS011;10759;51.982;9.232;2023-04-02T06:34:20;4.38;;;2.08;;
21202;SDS011;10759;51.982;9.232;2023-04-02T06:36:55;4.32;;;2.30;;
21202;SDS011;10759;51.982;9.232;2023-04-02T06:39:28;3.65;;;2.03;;
21202;SDS011;10759;51.982;9.232;2023-04-02T06:42:01;2.75;;;2.55;;
21202;SDS011;10759;51.982;9.232;2023-04-02T06:45:05;5.22;;;2.95;;
21202;SDS011;10759;51.982;9.232;2023-04-02T06:47:51;3.25;;;2.72;;
21202;SDS011;10759;51.982;9.232;2023-04-02T06:50:36;2.92;;;2.53;;
21202;SDS011;10759;51.982;9.232;2023-04-02T06:53:14;3.80;;;2.45;;
21202;SDS011;10759;51.982;9.232;2023-04-02T06:55:49;3.67;;;3.38;;
21202;SDS011;10759;51.982;9.232;2023-04-02T06:58:26;8.73;;;3.60;;
21202;SDS011;10759;51.982;9.232;2023-04-02T07:00:54;11.48;;;10.27;;
21202;SDS011;10759;51.982;9.232;2023-04-02T07:03:30;6.05;;;2.75;;
21202;SDS011;10759;51.982;9.232;2023-04-02T07:06:15;5.40;;;3.47;;
21202;SDS011;10759;51.982;9.232;2023-04-02T07:08:46;4.22;;;2.78;;
21202;SDS011;10759;51.982;9.232;2023-04-02T07:11:18;5.65;;;2.70;;
21202;SDS011;10759;51.982;9.232;2023-04-02T07:13:50;3.47;;;1.98;;
21202;SDS011;10759;51.982;9.232;2023-04-02T07:16:19;3.50;;;3.20;;
21202;SDS011;10759;51.982;9.232;2023-04-02T07:18:48;3.40;;;2.50;;
21202;SDS011;10759;51.982;9.232;2023-04-02T07:21:16;4.43;;;2.90;;
21202;SDS011;10759;51.982;9.232;2023-04-02T07:23:44;3.53;;;2.78;;
21202;SDS011;10759;51.982;9.232;2023-04-02T07:26:13;3.83;;;3.00;;
21202;SDS011;10759;51.982;9.232;2023-04-02T07:28:43;4.18;;;2.92;;
21202;SDS011;10759;51.982;9.232;2023-04-02T07:31:15;3.72;;;3.33;;
21202;SDS011;10759;51.982;9.232;2023-04-02T07:33:45;3.95;;;2.42;;
21202;SDS011;10759;51.982;9.232;2023-04-02T07:36:14;4.45;;;2.42;;
21202;SDS011;10759;51.982;9.232;2023-04-02T07:41:12;6.15;;;4.45;;
21202;SDS011;10759;51.982;9.232;2023-04-02T07:43:40;6.75;;;6.05;;
21202;SDS011;10759;51.982;9.232;2023-04-02T07:46:10;6.05;;;4.60;;
21202;SDS011;10759;51.982;9.232;2023-04-02T07:48:41;7.07;;;3.47;;
21202;SDS011;10759;51.982;9.232;2023-04-02T07:51:13;4.15;;;2.63;;
21202;SDS011;10759;51.982;9.232;2023-04-02T07:53:42;3.85;;;2.70;;
21202;SDS011;10759;51.982;9.232;2023-04-02T07:56:12;4.53;;;3.58;;
21202;SDS011;10759;51.982;9.232;2023-04-02T07:58:41;3.50;;;3.20;;
21202;SDS011;10759;51.982;9.232;2023-04-02T08:01:15;13.13;;;10.45;;
21202;SDS011;10759;51.982;9.232;2023-04-02T08:03:44;4.60;;;2.90;;
21202;SDS011;10759;51.982;9.232;2023-04-02T08:06:13;5.90;;;4.90;;
21202;SDS011;10759;51.982;9.232;2023-04-02T08:08:41;5.32;;;4.85;;
21202;SDS011;10759;51.982;9.232;2023-04-02T08:11:09;5.75;;;4.47;;
21202;SDS011;10759;51.982;9.232;2023-04-02T08:13:38;3.88;;;2.75;;
21202;SDS011;10759;51.982;9.232;2023-04-02T08:16:06;4.88;;;3.50;;
21202;SDS011;10759;51.982;9.232;2023-04-02T08:18:36;4.43;;;2.97;;
21202;SDS011;10759;51.982;9.232;2023-04-02T08:21:04;3.53;;;2.25;;
21202;SDS011;10759;51.982;9.232;2023-04-02T08:23:34;3.80;;;2.72;;
21202;SDS011;10759;51.982;9.232;2023-04-02T08:26:02;3.55;;;2.42;;
21202;SDS011;10759;51.982;9.232;2023-04-02T08:28:31;3.10;;;2.63;;
21202;SDS011;10759;51.982;9.232;2023-04-02T08:30:59;4.00;;;2.88;;
21202;SDS011;10759;51.982;9.232;2023-04-02T08:33:30;2.75;;;2.15;;
21202;SDS011;10759;51.982;9.232;2023-04-02T08:35:59;3.90;;;2.50;;
21202;SDS011;10759;51.982;9.232;2023-04-02T08:38:28;4.03;;;2.20;;
21202;SDS011;10759;51.982;9.232;2023-04-02T08:40:56;3.42;;;2.25;;
21202;SDS011;10759;51.982;9.232;2023-04-02T08:43:44;4.88;;;2.00;;
21202;SDS011;10759;51.982;9.232;2023-04-02T08:46:25;5.22;;;2.53;;
21202;SDS011;10759;51.982;9.232;2023-04-02T08:49:01;2.53;;;2.20;;
21202;SDS011;10759;51.982;9.232;2023-04-02T08:51:38;4.75;;;3.00;;
21202;SDS011;10759;51.982;9.232;2023-04-02T08:54:10;3.83;;;2.97;;
21202;SDS011;10759;51.982;9.232;2023-04-02T08:56:51;2.67;;;2.20;;
21202;SDS011;10759;51.982;9.232;2023-04-02T08:59:26;3.97;;;2.58;;
21202;SDS011;10759;51.982;9.232;2023-04-02T09:02:00;7.13;;;3.13;;
21202;SDS011;10759;51.982;9.232;2023-04-02T09:04:36;5.43;;;3.00;;
21202;SDS011;10759;51.982;9.232;2023-04-02T09:07:09;6.15;;;2.78;;
21202;SDS011;10759;51.982;9.232;2023-04-02T09:09:39;4.07;;;2.40;;
21202;SDS011;10759;51.982;9.232;2023-04-02T09:12:12;3.92;;;2.38;;
21202;SDS011;10759;51.982;9.232;2023-04-02T09:14:50;4.35;;;2.30;;
21202;SDS011;10759;51.982;9.232;2023-04-02T09:17:25;4.80;;;1.90;;
21202;SDS011;10759;51.982;9.232;2023-04-02T09:19:59;2.67;;;2.15;;
21202;SDS011;10759;51.982;9.232;2023-04-02T09:22:35;5.00;;;2.58;;
21202;SDS011;10759;51.982;9.232;2023-04-02T09:25:04;2.13;;;1.92;;
21202;SDS011;10759;51.982;9.232;2023-04-02T09:27:38;2.28;;;1.92;;
21202;SDS011;10759;51.982;9.232;2023-04-02T09:30:09;3.65;;;2.50;;
21202;SDS011;10759;51.982;9.232;2023-04-02T09:32:49;3.72;;;2.08;;
21202;SDS011;10759;51.982;9.232;2023-04-02T09:35:20;2.67;;;1.90;;
21202;SDS011;10759;51.982;9.232;2023-04-02T09:40:50;20.13;;;15.93;;
21202;SDS011;10759;51.982;9.232;2023-04-02T09:43:24;6.38;;;4.82;;
21202;SDS011;10759;51.982;9.232;2023-04-02T09:45:57;6.32;;;4.07;;
21202;SDS011;10759;51.982;9.232;2023-04-02T09:48:27;5.80;;;5.00;;
21202;SDS011;10759;51.982;9.232;2023-04-02T09:51:03;11.63;;;10.43;;
21202;SDS011;10759;51.982;9.232;2023-04-02T09:53:43;28.30;;;19.92;;
21202;SDS011;10759;51.982;9.232;2023-04-02T09:56:13;4.43;;;2.90;;
21202;SDS011;10759;51.982;9.232;2023-04-02T09:58:43;5.78;;;4.28;;
21202;SDS011;10759;51.982;9.232;2023-04-02T10:01:26;4.72;;;2.75;;
21202;SDS011;10759;51.982;9.232;2023-04-02T10:03:56;3.53;;;2.40;;
21202;SDS011;10759;51.982;9.232;2023-04-02T10:06:26;3.83;;;2.70;;
21202;SDS011;10759;51.982;9.232;2023-04-02T10:08:56;3.30;;;2.25;;
21202;SDS011;10759;51.982;9.232;2023-04-02T10:11:26;2.28;;;1.98;;
21202;SDS011;10759;51.982;9.232;2023-04-02T10:14:14;3.67;;;2.47;;
21202;SDS011;10759;51.982;9.232;2023-04-02T10:16:46;3.35;;;1.83;;
21202;SDS011;10759;51.982;9.232;2023-04-02T10:19:19;5.25;;;2.58;;
21202;SDS011;10759;51.982;9.232;2023-04-02T10:21:53;5.18;;;2.75;;
21202;SDS011;10759;51.982;9.232;2023-04-02T10:24:25;4.32;;;2.10;;
21202;SDS011;10759;51.982;9.232;2023-04-02T10:26:56;3.13;;;2.38;;
21202;SDS011;10759;51.982;9.232;2023-04-02T10:29:35;4.00;;;1.85;;
21202;SDS011;10759;51.982;9.232;2023-04-02T10:32:13;5.60;;;2.28;;
21202;SDS011;10759;51.982;9.232;2023-04-02T10:34:47;4.90;;;3.25;;
21202;SDS011;10759;51.982;9.232;2023-04-02T10:37:26;2.85;;;2.08;;
21202;SDS011;10759;51.982;9.232;2023-04-02T10:40:18;4.78;;;2.92;;
21202;SDS011;10759;51.982;9.232;2023-04-02T10:42:54;4.93;;;2.40;;
21202;SDS011;10759;51.982;9.232;2023-04-02T10:45:34;2.45;;;2.15;;
21202;SDS011;10759;51.982;9.232;2023-04-02T10:48:10;5.13;;;2.33;;
21202;SDS011;10759;51.982;9.232;2023-04-02T10:50:48;3.47;;;2.53;;
21202;SDS011;10759;51.982;9.232;2023-04-02T10:53:21;5.47;;;2.47;;
21202;SDS011;10759;51.982;9.232;2023-04-02T10:55:59;3.40;;;2.90;;
21202;SDS011;10759;51.982;9.232;2023-04-02T10:58:32;2.95;;;1.75;;
21202;SDS011;10759;51.982;9.232;2023-04-02T11:01:04;3.00;;;2.00;;
21202;SDS011;10759;51.982;9.232;2023-04-02T11:03:37;4.60;;;2.22;;
21202;SDS011;10759;51.982;9.232;2023-04-02T11:06:11;2.92;;;2.10;;
21202;SDS011;10759;51.982;9.232;2023-04-02T11:08:45;4.97;;;1.85;;
21202;SDS011;10759;51.982;9.232;2023-04-02T11:11:17;5.90;;;2.55;;
21202;SDS011;10759;51.982;9.232;2023-04-02T11:13:49;5.05;;;2.00;;
21202;SDS011;10759;51.982;9.232;2023-04-02T11:16:21;3.45;;;1.85;;
21202;SDS011;10759;51.982;9.232;2023-04-02T11:19:19;5.35;;;2.25;;
21202;SDS011;10759;51.982;9.232;2023-04-02T11:21:49;3.80;;;1.92;;
21202;SDS011;10759;51.982;9.232;2023-04-02T11:24:35;2.05;;;1.80;;
21202;SDS011;10759;51.982;9.232;2023-04-02T11:27:21;3.83;;;2.25;;
21202;SDS011;10759;51.982;9.232;2023-04-02T11:29:54;4.18;;;2.10;;
21202;SDS011;10759;51.982;9.232;2023-04-02T11:32:34;4.90;;;2.97;;
21202;SDS011;10759;51.982;9.232;2023-04-02T11:44:36;4.15;;;2.03;;
21202;SDS011;10759;51.982;9.232;2023-04-02T11:47:13;4.45;;;2.28;;
21202;SDS011;10759;51.982;9.232;2023-04-02T11:52:53;6.53;;;2.55;;
21202;SDS011;10759;51.982;9.232;2023-04-02T11:55:26;3.88;;;2.40;;
21202;SDS011;10759;51.982;9.232;2023-04-02T11:58:11;4.50;;;3.17;;
21202;SDS011;10759;51.982;9.232;2023-04-02T12:01:16;4.22;;;2.08;;
21202;SDS011;10759;51.982;9.232;2023-04-02T12:07:05;4.70;;;2.22;;
21202;SDS011;10759;51.982;9.232;2023-04-02T12:09:48;2.95;;;2.08;;
21202;SDS011;10759;51.982;9.232;2023-04-02T12:12:24;3.47;;;2.40;;
21202;SDS011;10759;51.982;9.232;2023-04-02T12:14:54;2.83;;;2.03;;
21202;SDS011;10759;51.982;9.232;2023-04-02T12:17:27;3.38;;;2.15;;
21202;SDS011;10759;51.982;9.232;2023-04-02T12:19:57;4.35;;;2.22;;
21202;SDS011;10759;51.982;9.232;2023-04-02T12:22:31;4.57;;;2.20;;
21202;SDS011;10759;51.982;9.232;2023-04-02T12:24:59;2.20;;;1.98;;
21202;SDS011;10759;51.982;9.232;2023-04-02T12:27:29;3.38;;;2.00;;
21202;SDS011;10759;51.982;9.232;2023-04-02T12:30:09;3.63;;;1.90;;
21202;SDS011;10759;51.982;9.232;2023-04-02T12:32:40;3.22;;;1.92;;
21202;SDS011;10759;51.982;9.232;2023-04-02T12:35:14;3.67;;;2.20;;
21202;SDS011;10759;51.982;9.232;2023-04-02T12:37:54;5.65;;;2.33;;
21202;SDS011;10759;51.982;9.232;2023-04-02T12:40:23;6.50;;;4.45;;
21202;SDS011;10759;51.982;9.232;2023-04-02T12:42:52;3.42;;;1.88;;
21202;SDS011;10759;51.982;9.232;2023-04-02T12:45:21;3.65;;;2.22;;
21202;SDS011;10759;51.982;9.232;2023-04-02T12:47:57;4.40;;;2.22;;
21202;SDS011;10759;51.982;9.232;2023-04-02T12:50:29;5.82;;;4.28;;
21202;SDS011;10759;51.982;9.232;2023-04-02T12:52:58;8.63;;;6.90;;
21202;SDS011;10759;51.982;9.232;2023-04-02T12:55:27;7.82;;;6.93;;
21202;SDS011;10759;51.982;9.232;2023-04-02T12:57:56;15.43;;;10.98;;
21202;SDS011;10759;51.982;9.232;2023-04-02T13:00:31;4.63;;;3.92;;
21202;SDS011;10759;51.982;9.232;2023-04-02T13:03:14;11.10;;;8.13;;
21202;SDS011;10759;51.982;9.232;2023-04-02T13:05:45;12.75;;;11.23;;
21202;SDS011;10759;51.982;9.232;2023-04-02T13:08:16;3.05;;;2.10;;
21202;SDS011;10759;51.982;9.232;2023-04-02T13:10:50;9.52;;;7.90;;
21202;SDS011;10759;51.982;9.232;2023-04-02T13:13:22;3.42;;;2.35;;
21202;SDS011;10759;51.982;9.232;2023-04-02T13:16:04;27.33;;;22.42;;
21202;SDS011;10759;51.982;9.232;2023-04-02T13:18:36;4.43;;;3.20;;
21202;SDS011;10759;51.982;9.232;2023-04-02T13:21:05;2.63;;;2.15;;
21202;SDS011;10759;51.982;9.232;2023-04-02T13:23:34;3.35;;;2.50;;
21202;SDS011;10759;51.982;9.232;2023-04-02T13:26:16;7.72;;;2.40;;
21202;SDS011;10759;51.982;9.232;2023-04-02T13:28:54;5.03;;;2.63;;
21202;SDS011;10759;51.982;9.232;2023-04-02T13:31:26;3.97;;;2.55;;
21202;SDS011;10759;51.982;9.232;2023-04-02T13:33:56;2.95;;;2.38;;
21202;SDS011;10759;51.982;9.232;2023-04-02T13:36:24;2.65;;;1.80;;
21202;SDS011;10759;51.982;9.232;2023-04-02T13:41:23;2.42;;;1.83;;
21202;SDS011;10759;51.982;9.232;2023-04-02T13:43:52;7.07;;;4.30;;
21202;SDS011;10759;51.982;9.232;2023-04-02T13:46:22;4.85;;;3.15;;
21202;SDS011;10759;51.982;9.232;2023-04-02T13:51:21;4.43;;;3.15;;
21202;SDS011;10759;51.982;9.232;2023-04-02T13:53:52;10.30;;;7.25;;
21202;SDS011;10759;51.982;9.232;2023-04-02T13:56:23;4.53;;;2.55;;
21202;SDS011;10759;51.982;9.232;2023-04-02T13:58:51;3.92;;;2.72;;
21202;SDS011;10759;51.982;9.232;2023-04-02T14:01:19;4.55;;;3.20;;
21202;SDS011;10759;51.982;9.232;2023-04-02T14:03:51;3.90;;;3.42;;
21202;SDS011;10759;51.982;9.232;2023-04-02T14:06:23;4.68;;;3.63;;
21202;SDS011;10759;51.982;9.232;2023-04-02T14:09:03;3.85;;;2.20;;
21202;SDS011;10759;51.982;9.232;2023-04-02T14:11:41;3.88;;;2.00;;
21202;SDS011;10759;51.982;9.232;2023-04-02T14:14:23;1.95;;;1.67;;
21202;SDS011;10759;51.982;9.232;2023-04-02T14:17:09;4.47;;;3.90;;
21202;SDS011;10759;51.982;9.232;2023-04-02T14:19:47;3.88;;;2.20;;
21202;SDS011;10759;51.982;9.232;2023-04-02T14:22:31;4.35;;;2.03;;
21202;SDS011;10759;51.982;9.232;2023-04-02T14:25:12;2.42;;;1.85;;
21202;SDS011;10759;51.982;9.232;2023-04-02T14:27:46;4.32;;;3.28;;
21202;SDS011;10759;51.982;9.232;2023-04-02T14:30:22;3.60;;;3.25;;
21202;SDS011;10759;51.982;9.232;2023-04-02T14:33:00;4.82;;;1.90;;
21202;SDS011;10759;51.982;9.232;2023-04-02T14:35:36;1.65;;;1.50;;
21202;SDS011;10759;51.982;9.232;2023-04-02T14:38:12;1.92;;;1.38;;
21202;SDS011;10759;51.982;9.232;2023-04-02T14:43:21;3.35;;;2.22;;
21202;SDS011;10759;51.982;9.232;2023-04-02T14:45:54;4.50;;;2.00;;
21202;SDS011;10759;51.982;9.232;2023-04-02T14:48:42;1.73;;;1.50;;
21202;SDS011;10759;51.982;9.232;2023-04-02T14:51:16;3.35;;;2.13;;
21202;SDS011;10759;51.982;9.232;2023-04-02T14:53:55;2.83;;;1.60;;
21202;SDS011;10759;51.982;9.232;2023-04-02T14:56:28;4.75;;;4.22;;
21202;SDS011;10759;51.982;9.232;2023-04-02T14:59:04;2.58;;;1.67;;
21202;SDS011;10759;51.982;9.232;2023-04-02T15:01:47;5.28;;;2.28;;
21202;SDS011;10759;51.982;9.232;2023-04-02T15:04:17;6.38;;;3.38;;
21202;SDS011;10759;51.982;9.232;2023-04-02T15:06:50;3.10;;;2.75;;
21202;SDS011;10759;51.982;9.232;2023-04-02T15:09:24;2.17;;;1.90;;
21202;SDS011;10759;51.982;9.232;2023-04-02T15:11:56;2.58;;;1.90;;
21202;SDS011;10759;51.982;9.232;2023-04-02T15:14:30;4.63;;;3.17;;
21202;SDS011;10759;51.982;9.232;2023-04-02T15:17:01;2.95;;;2.58;;
21202;SDS011;10759;51.982;9.232;2023-04-02T15:19:29;2.50;;;1.70;;
21202;SDS011;10759;51.982;9.232;2023-04-02T15:24:59;4.53;;;2.28;;
21202;SDS011;10759;51.982;9.232;2023-04-02T15:27:40;3.55;;;1.98;;
21202;SDS011;10759;51.982;9.232;2023-04-02T15:30:23;2.05;;;1.60;;
21202;SDS011;10759;51.982;9.232;2023-04-02T15:32:54;2.80;;;1.67;;
21202;SDS011;10759;51.982;9.232;2023-04-02T15:35:29;2.45;;;1.40;;
21202;SDS011;10759;51.982;9.232;2023-04-02T15:38:08;8.32;;;4.78;;
21202;SDS011;10759;51.982;9.232;2023-04-02T15:40:48;4.13;;;2.42;;
21202;SDS011;10759;51.982;9.232;2023-04-02T15:43:22;2.22;;;1.40;;
21202;SDS011;10759;51.982;9.232;2023-04-02T15:45:56;3.28;;;2.13;;
21202;SDS011;10759;51.982;9.232;2023-04-02T15:48:48;3.78;;;1.63;;
21202;SDS011;10759;51.982;9.232;2023-04-02T15:51:31;2.85;;;1.48;;
21202;SDS011;10759;51.982;9.232;2023-04-02T15:54:08;2.63;;;1.58;;
21202;SDS011;10759;51.982;9.232;2023-04-02T15:56:49;3.15;;;2.55;;
21202;SDS011;10759;51.982;9.232;2023-04-02T15:59:29;4.80;;;1.70;;
21202;SDS011;10759;51.982;9.232;2023-04-02T16:02:19;2.92;;;1.90;;
21202;SDS011;10759;51.982;9.232;2023-04-02T16:05:00;1.90;;;1.60;;
21202;SDS011;10759;51.982;9.232;2023-04-02T16:07:39;5.57;;;2.10;;